sensor_id;sensor_type;location;lat;lon;timestamp;temperature;humidity
20957;DHT22;10637;47.970;7.830;2023-02-02T00:00:44;5.60;96.90
20957;DHT22;10637;47.970;7.830;2023-02-02T00:05:47;5.60;97.10
20957;DHT22;10637;47.970;7.830;2023-02-02T00:10:50;5.60;97.20
20957;DHT22;10637;47.970;7.830;2023-02-02T00:15:52;5.50;97.50
20957;DHT22;10637;47.970;7.830;2023-02-02T00:20:54;5.50;97.70
20957;DHT22;10637;47.970;7.830;2023-02-02T00:25:57;5.40;97.80
20957;DHT22;10637;47.970;7.830;2023-02-02T00:30:59;5.40;98.10
20957;DHT22;10637;47.970;7.830;2023-02-02T00:36:02;5.40;98.20
20957;DHT22;10637;47.970;7.830;2023-02-02T00:41:06;5.30;98.20
20957;DHT22;10637;47.970;7.830;2023-02-02T00:46:16;5.40;98.30
20957;DHT22;10637;47.970;7.830;2023-02-02T00:51:19;5.30;98.40
20957;DHT22;10637;47.970;7.830;2023-02-02T00:56:21;5.40;98.50
20957;DHT22;10637;47.970;7.830;2023-02-02T01:01:23;5.40;98.40
20957;DHT22;10637;47.970;7.830;2023-02-02T01:06:25;5.40;98.40
20957;DHT22;10637;47.970;7.830;2023-02-02T01:11:29;5.40;98.40
20957;DHT22;10637;47.970;7.830;2023-02-02T01:16:32;5.30;98.50
20957;DHT22;10637;47.970;7.830;2023-02-02T01:21:36;5.30;98.60
20957;DHT22;10637;47.970;7.830;2023-02-02T01:26:38;5.30;98.70
20957;DHT22;10637;47.970;7.830;2023-02-02T01:31:40;5.30;98.60
20957;DHT22;10637;47.970;7.830;2023-02-02T01:36:43;5.30;98.60
20957;DHT22;10637;47.970;7.830;2023-02-02T01:41:45;5.40;98.60
20957;DHT22;10637;47.970;7.830;2023-02-02T01:46:47;5.30;98.70
20957;DHT22;10637;47.970;7.830;2023-02-02T01:51:58;5.30;98.90
20957;DHT22;10637;47.970;7.830;2023-02-02T01:57:07;5.30;99.00
20957;DHT22;10637;47.970;7.830;2023-02-02T02:02:11;5.30;99.00
20957;DHT22;10637;47.970;7.830;2023-02-02T02:07:16;5.30;99.00
20957;DHT22;10637;47.970;7.830;2023-02-02T02:12:18;5.30;99.00
20957;DHT22;10637;47.970;7.830;2023-02-02T02:33:46;5.40;98.50
20957;DHT22;10637;47.970;7.830;2023-02-02T02:44:09;5.50;98.40
20957;DHT22;10637;47.970;7.830;2023-02-02T02:49:13;5.50;98.50
20957;DHT22;10637;47.970;7.830;2023-02-02T02:54:18;5.50;98.60
20957;DHT22;10637;47.970;7.830;2023-02-02T03:04:39;5.40;98.80
20957;DHT22;10637;47.970;7.830;2023-02-02T03:09:45;5.50;98.90
20957;DHT22;10637;47.970;7.830;2023-02-02T03:14:48;5.50;98.80
20957;DHT22;10637;47.970;7.830;2023-02-02T03:19:50;5.50;98.40
20957;DHT22;10637;47.970;7.830;2023-02-02T03:24:52;5.50;98.70
20957;DHT22;10637;47.970;7.830;2023-02-02T03:29:54;5.50;98.80
20957;DHT22;10637;47.970;7.830;2023-02-02T03:34:56;5.50;98.70
20957;DHT22;10637;47.970;7.830;2023-02-02T03:39:57;5.50;98.90
20957;DHT22;10637;47.970;7.830;2023-02-02T03:44:59;5.40;99.00
20957;DHT22;10637;47.970;7.830;2023-02-02T03:50:01;5.50;99.00
20957;DHT22;10637;47.970;7.830;2023-02-02T03:55:03;5.50;99.10
20957;DHT22;10637;47.970;7.830;2023-02-02T04:00:06;5.40;99.10
20957;DHT22;10637;47.970;7.830;2023-02-02T04:05:08;5.50;99.10
20957;DHT22;10637;47.970;7.830;2023-02-02T04:10:10;5.50;99.10
20957;DHT22;10637;47.970;7.830;2023-02-02T04:15:12;5.50;99.00
20957;DHT22;10637;47.970;7.830;2023-02-02T04:20:14;5.50;98.90
20957;DHT22;10637;47.970;7.830;2023-02-02T04:25:16;5.50;98.80
20957;DHT22;10637;47.970;7.830;2023-02-02T04:30:17;5.50;99.00
20957;DHT22;10637;47.970;7.830;2023-02-02T04:35:20;5.60;98.90
20957;DHT22;10637;47.970;7.830;2023-02-02T04:40:22;5.60;98.90
20957;DHT22;10637;47.970;7.830;2023-02-02T04:45:24;5.60;98.90
20957;DHT22;10637;47.970;7.830;2023-02-02T04:50:27;5.60;98.90
20957;DHT22;10637;47.970;7.830;2023-02-02T04:55:28;5.60;98.90
20957;DHT22;10637;47.970;7.830;2023-02-02T05:00:30;5.60;98.90
20957;DHT22;10637;47.970;7.830;2023-02-02T05:05:32;5.70;98.90
20957;DHT22;10637;47.970;7.830;2023-02-02T05:10:34;5.70;98.90
20957;DHT22;10637;47.970;7.830;2023-02-02T05:15:35;5.60;98.90
20957;DHT22;10637;47.970;7.830;2023-02-02T05:20:37;5.60;99.00
20957;DHT22;10637;47.970;7.830;2023-02-02T05:25:39;5.50;99.10
20957;DHT22;10637;47.970;7.830;2023-02-02T05:30:40;5.60;99.10
20957;DHT22;10637;47.970;7.830;2023-02-02T05:35:44;5.60;99.20
20957;DHT22;10637;47.970;7.830;2023-02-02T05:40:48;5.50;99.20
20957;DHT22;10637;47.970;7.830;2023-02-02T05:45:49;5.60;99.30
20957;DHT22;10637;47.970;7.830;2023-02-02T05:51:15;5.60;99.20
20957;DHT22;10637;47.970;7.830;2023-02-02T05:56:18;5.60;99.30
20957;DHT22;10637;47.970;7.830;2023-02-02T06:01:20;5.60;99.40
20957;DHT22;10637;47.970;7.830;2023-02-02T06:06:22;5.60;99.30
20957;DHT22;10637;47.970;7.830;2023-02-02T06:11:24;5.60;99.40
20957;DHT22;10637;47.970;7.830;2023-02-02T06:16:25;5.60;99.30
20957;DHT22;10637;47.970;7.830;2023-02-02T06:21:27;5.60;99.30
20957;DHT22;10637;47.970;7.830;2023-02-02T06:26:31;5.70;99.20
20957;DHT22;10637;47.970;7.830;2023-02-02T06:31:33;5.70;99.10
20957;DHT22;10637;47.970;7.830;2023-02-02T06:36:35;5.70;99.00
20957;DHT22;10637;47.970;7.830;2023-02-02T06:41:37;5.70;99.00
20957;DHT22;10637;47.970;7.830;2023-02-02T06:46:39;5.70;99.10
20957;DHT22;10637;47.970;7.830;2023-02-02T06:51:41;5.70;99.20
20957;DHT22;10637;47.970;7.830;2023-02-02T06:56:42;5.70;99.30
20957;DHT22;10637;47.970;7.830;2023-02-02T07:01:44;5.70;99.30
20957;DHT22;10637;47.970;7.830;2023-02-02T07:06:46;5.70;99.30
20957;DHT22;10637;47.970;7.830;2023-02-02T07:11:48;5.70;99.30
20957;DHT22;10637;47.970;7.830;2023-02-02T07:16:49;5.70;99.40
20957;DHT22;10637;47.970;7.830;2023-02-02T07:21:51;5.80;99.30
20957;DHT22;10637;47.970;7.830;2023-02-02T07:26:53;5.70;99.30
20957;DHT22;10637;47.970;7.830;2023-02-02T07:31:55;5.70;99.30
20957;DHT22;10637;47.970;7.830;2023-02-02T07:36:57;5.80;99.30
20957;DHT22;10637;47.970;7.830;2023-02-02T07:41:59;5.70;99.30
20957;DHT22;10637;47.970;7.830;2023-02-02T07:47:00;5.70;99.40
20957;DHT22;10637;47.970;7.830;2023-02-02T07:52:02;5.80;99.30
20957;DHT22;10637;47.970;7.830;2023-02-02T07:57:04;5.70;99.40
20957;DHT22;10637;47.970;7.830;2023-02-02T08:02:08;5.80;99.60
20957;DHT22;10637;47.970;7.830;2023-02-02T08:07:10;5.80;99.70
20957;DHT22;10637;47.970;7.830;2023-02-02T08:12:13;5.80;99.60
20957;DHT22;10637;47.970;7.830;2023-02-02T08:17:14;5.90;99.60
20957;DHT22;10637;47.970;7.830;2023-02-02T08:22:16;5.90;99.60
20957;DHT22;10637;47.970;7.830;2023-02-02T08:27:20;6.00;99.30
20957;DHT22;10637;47.970;7.830;2023-02-02T08:32:22;6.10;99.10
20957;DHT22;10637;47.970;7.830;2023-02-02T08:37:24;6.10;98.90
20957;DHT22;10637;47.970;7.830;2023-02-02T08:42:25;6.20;98.80
20957;DHT22;10637;47.970;7.830;2023-02-02T08:47:30;6.20;98.80
20957;DHT22;10637;47.970;7.830;2023-02-02T08:52:32;6.30;98.80
20957;DHT22;10637;47.970;7.830;2023-02-02T08:57:34;6.30;98.70
20957;DHT22;10637;47.970;7.830;2023-02-02T09:02:36;6.30;98.80
20957;DHT22;10637;47.970;7.830;2023-02-02T09:07:37;6.20;98.90
20957;DHT22;10637;47.970;7.830;2023-02-02T09:12:39;6.30;98.80
20957;DHT22;10637;47.970;7.830;2023-02-02T09:17:41;6.30;98.80
20957;DHT22;10637;47.970;7.830;2023-02-02T09:22:43;6.40;98.40
20957;DHT22;10637;47.970;7.830;2023-02-02T09:27:44;6.30;98.80
20957;DHT22;10637;47.970;7.830;2023-02-02T09:32:48;6.40;98.90
20957;DHT22;10637;47.970;7.830;2023-02-02T09:37:50;6.40;98.90
20957;DHT22;10637;47.970;7.830;2023-02-02T09:53:48;6.50;99.00
20957;DHT22;10637;47.970;7.830;2023-02-02T09:58:59;6.50;99.00
20957;DHT22;10637;47.970;7.830;2023-02-02T10:09:59;6.30;99.40
20957;DHT22;10637;47.970;7.830;2023-02-02T10:15:21;6.40;99.50
20957;DHT22;10637;47.970;7.830;2023-02-02T10:31:16;6.40;99.60
20957;DHT22;10637;47.970;7.830;2023-02-02T10:36:46;6.40;99.50
20957;DHT22;10637;47.970;7.830;2023-02-02T10:47:18;6.50;99.90
20957;DHT22;10637;47.970;7.830;2023-02-02T10:52:29;6.50;99.90
20957;DHT22;10637;47.970;7.830;2023-02-02T11:02:58;6.50;99.90
20957;DHT22;10637;47.970;7.830;2023-02-02T11:08:17;6.60;99.90
20957;DHT22;10637;47.970;7.830;2023-02-02T11:13:27;6.60;99.70
20957;DHT22;10637;47.970;7.830;2023-02-02T11:18:30;6.60;99.50
20957;DHT22;10637;47.970;7.830;2023-02-02T11:23:32;6.70;99.50
20957;DHT22;10637;47.970;7.830;2023-02-02T11:28:34;6.70;99.30
20957;DHT22;10637;47.970;7.830;2023-02-02T11:33:37;6.80;99.00
20957;DHT22;10637;47.970;7.830;2023-02-02T11:38:39;6.80;98.90
20957;DHT22;10637;47.970;7.830;2023-02-02T11:43:53;6.80;98.60
20957;DHT22;10637;47.970;7.830;2023-02-02T11:49:02;6.90;98.30
20957;DHT22;10637;47.970;7.830;2023-02-02T11:54:41;6.90;98.20
20957;DHT22;10637;47.970;7.830;2023-02-02T11:59:43;7.00;98.20
20957;DHT22;10637;47.970;7.830;2023-02-02T12:04:47;7.00;98.20
20957;DHT22;10637;47.970;7.830;2023-02-02T12:09:49;7.00;98.00
20957;DHT22;10637;47.970;7.830;2023-02-02T12:20:08;7.00;97.80
20957;DHT22;10637;47.970;7.830;2023-02-02T12:35:47;7.10;97.70
20957;DHT22;10637;47.970;7.830;2023-02-02T13:07:55;7.00;98.90
20957;DHT22;10637;47.970;7.830;2023-02-02T13:18:30;7.00;98.80
20957;DHT22;10637;47.970;7.830;2023-02-02T13:23:39;6.90;98.80
20957;DHT22;10637;47.970;7.830;2023-02-02T13:34:26;7.00;98.60
20957;DHT22;10637;47.970;7.830;2023-02-02T13:40:19;7.00;98.30
20957;DHT22;10637;47.970;7.830;2023-02-02T13:45:54;7.10;98.30
20957;DHT22;10637;47.970;7.830;2023-02-02T13:50:30;7.10;98.10
20957;DHT22;10637;47.970;7.830;2023-02-02T13:55:55;7.10;98.20
20957;DHT22;10637;47.970;7.830;2023-02-02T14:01:08;7.20;98.10
20957;DHT22;10637;47.970;7.830;2023-02-02T14:06:16;7.20;98.20
20957;DHT22;10637;47.970;7.830;2023-02-02T14:11:30;7.20;98.30
20957;DHT22;10637;47.970;7.830;2023-02-02T14:26:44;7.00;99.30
20957;DHT22;10637;47.970;7.830;2023-02-02T14:31:52;7.00;99.30
20957;DHT22;10637;47.970;7.830;2023-02-02T14:48:08;7.00;99.40
20957;DHT22;10637;47.970;7.830;2023-02-02T14:53:25;7.00;99.30
20957;DHT22;10637;47.970;7.830;2023-02-02T14:58:37;7.10;99.00
20957;DHT22;10637;47.970;7.830;2023-02-02T15:03:50;7.10;98.70
20957;DHT22;10637;47.970;7.830;2023-02-02T15:14:21;7.20;98.30
20957;DHT22;10637;47.970;7.830;2023-02-02T15:19:30;7.20;97.90
20957;DHT22;10637;47.970;7.830;2023-02-02T15:24:34;7.30;97.70
20957;DHT22;10637;47.970;7.830;2023-02-02T15:29:43;7.30;97.50
20957;DHT22;10637;47.970;7.830;2023-02-02T15:34:50;7.40;97.40
20957;DHT22;10637;47.970;7.830;2023-02-02T15:39:56;7.40;97.30
20957;DHT22;10637;47.970;7.830;2023-02-02T15:44:58;7.40;96.90
20957;DHT22;10637;47.970;7.830;2023-02-02T15:50:00;7.40;97.30
20957;DHT22;10637;47.970;7.830;2023-02-02T15:55:39;7.40;97.20
20957;DHT22;10637;47.970;7.830;2023-02-02T16:00:39;7.50;97.10
20957;DHT22;10637;47.970;7.830;2023-02-02T16:05:53;7.60;96.60
20957;DHT22;10637;47.970;7.830;2023-02-02T16:11:03;7.50;97.00
20957;DHT22;10637;47.970;7.830;2023-02-02T16:16:29;7.60;96.40
20957;DHT22;10637;47.970;7.830;2023-02-02T16:21:32;7.60;96.90
20957;DHT22;10637;47.970;7.830;2023-02-02T16:26:34;7.60;96.90
20957;DHT22;10637;47.970;7.830;2023-02-02T16:31:37;7.50;96.80
20957;DHT22;10637;47.970;7.830;2023-02-02T16:36:38;7.60;96.90
20957;DHT22;10637;47.970;7.830;2023-02-02T16:41:40;7.50;96.80
20957;DHT22;10637;47.970;7.830;2023-02-02T16:46:45;7.70;96.70
20957;DHT22;10637;47.970;7.830;2023-02-02T16:52:15;7.60;96.70
20957;DHT22;10637;47.970;7.830;2023-02-02T16:57:22;7.60;96.50
20957;DHT22;10637;47.970;7.830;2023-02-02T17:07:29;7.60;96.50
20957;DHT22;10637;47.970;7.830;2023-02-02T17:12:32;7.60;96.50
20957;DHT22;10637;47.970;7.830;2023-02-02T17:17:35;7.60;96.50
20957;DHT22;10637;47.970;7.830;2023-02-02T17:22:42;7.60;96.50
20957;DHT22;10637;47.970;7.830;2023-02-02T17:27:46;7.60;96.30
20957;DHT22;10637;47.970;7.830;2023-02-02T17:32:48;7.70;96.20
20957;DHT22;10637;47.970;7.830;2023-02-02T17:37:50;7.60;96.30
20957;DHT22;10637;47.970;7.830;2023-02-02T17:42:54;7.60;96.00
20957;DHT22;10637;47.970;7.830;2023-02-02T17:47:56;7.60;96.80
20957;DHT22;10637;47.970;7.830;2023-02-02T17:52:58;7.60;96.90
20957;DHT22;10637;47.970;7.830;2023-02-02T17:57:59;7.50;97.00
20957;DHT22;10637;47.970;7.830;2023-02-02T18:03:23;7.40;97.30
20957;DHT22;10637;47.970;7.830;2023-02-02T18:08:26;7.50;97.30
20957;DHT22;10637;47.970;7.830;2023-02-02T18:13:28;7.50;97.00
20957;DHT22;10637;47.970;7.830;2023-02-02T18:18:30;7.50;96.90
20957;DHT22;10637;47.970;7.830;2023-02-02T18:23:31;7.50;96.80
20957;DHT22;10637;47.970;7.830;2023-02-02T18:28:33;7.50;97.00
20957;DHT22;10637;47.970;7.830;2023-02-02T18:33:35;7.50;97.20
20957;DHT22;10637;47.970;7.830;2023-02-02T18:38:39;7.40;97.40
20957;DHT22;10637;47.970;7.830;2023-02-02T18:43:41;7.40;97.90
20957;DHT22;10637;47.970;7.830;2023-02-02T18:48:43;7.30;98.10
20957;DHT22;10637;47.970;7.830;2023-02-02T18:53:45;7.40;97.90
20957;DHT22;10637;47.970;7.830;2023-02-02T18:58:47;7.40;98.00
20957;DHT22;10637;47.970;7.830;2023-02-02T19:03:51;7.30;98.00
20957;DHT22;10637;47.970;7.830;2023-02-02T19:08:53;7.30;98.10
20957;DHT22;10637;47.970;7.830;2023-02-02T19:13:55;7.20;98.30
20957;DHT22;10637;47.970;7.830;2023-02-02T19:19:02;7.20;98.30
20957;DHT22;10637;47.970;7.830;2023-02-02T19:24:08;7.20;98.50
20957;DHT22;10637;47.970;7.830;2023-02-02T19:29:19;7.10;98.50
20957;DHT22;10637;47.970;7.830;2023-02-02T19:34:22;7.10;98.40
20957;DHT22;10637;47.970;7.830;2023-02-02T19:39:30;7.20;98.30
20957;DHT22;10637;47.970;7.830;2023-02-02T19:44:32;7.10;98.30
20957;DHT22;10637;47.970;7.830;2023-02-02T19:49:35;7.20;98.40
20957;DHT22;10637;47.970;7.830;2023-02-02T19:54:39;7.10;98.50
20957;DHT22;10637;47.970;7.830;2023-02-02T19:59:45;7.00;98.70
20957;DHT22;10637;47.970;7.830;2023-02-02T20:04:57;7.00;98.80
20957;DHT22;10637;47.970;7.830;2023-02-02T20:10:21;7.10;98.40
20957;DHT22;10637;47.970;7.830;2023-02-02T20:15:30;7.00;98.90
20957;DHT22;10637;47.970;7.830;2023-02-02T20:20:40;7.00;99.00
20957;DHT22;10637;47.970;7.830;2023-02-02T20:25:43;6.90;99.10
20957;DHT22;10637;47.970;7.830;2023-02-02T20:30:46;6.90;99.10
20957;DHT22;10637;47.970;7.830;2023-02-02T20:35:48;6.90;99.10
20957;DHT22;10637;47.970;7.830;2023-02-02T20:40:50;6.90;99.30
20957;DHT22;10637;47.970;7.830;2023-02-02T20:45:52;6.80;99.40
20957;DHT22;10637;47.970;7.830;2023-02-02T20:50:54;6.80;99.30
20957;DHT22;10637;47.970;7.830;2023-02-02T20:55:56;6.70;99.50
20957;DHT22;10637;47.970;7.830;2023-02-02T21:01:00;6.70;99.80
20957;DHT22;10637;47.970;7.830;2023-02-02T21:06:06;6.60;99.90
20957;DHT22;10637;47.970;7.830;2023-02-02T21:11:07;6.60;99.80
20957;DHT22;10637;47.970;7.830;2023-02-02T21:16:09;6.60;99.70
20957;DHT22;10637;47.970;7.830;2023-02-02T21:21:11;6.60;99.50
20957;DHT22;10637;47.970;7.830;2023-02-02T21:26:16;6.60;99.50
20957;DHT22;10637;47.970;7.830;2023-02-02T21:31:19;6.70;99.30
20957;DHT22;10637;47.970;7.830;2023-02-02T21:36:34;6.60;99.40
20957;DHT22;10637;47.970;7.830;2023-02-02T21:41:37;6.60;99.40
20957;DHT22;10637;47.970;7.830;2023-02-02T21:46:39;6.60;99.30
20957;DHT22;10637;47.970;7.830;2023-02-02T21:51:41;6.60;99.10
20957;DHT22;10637;47.970;7.830;2023-02-02T21:56:43;6.60;99.10
20957;DHT22;10637;47.970;7.830;2023-02-02T22:01:45;6.60;99.00
20957;DHT22;10637;47.970;7.830;2023-02-02T22:06:53;6.70;98.90
20957;DHT22;10637;47.970;7.830;2023-02-02T22:11:59;6.60;98.70
20957;DHT22;10637;47.970;7.830;2023-02-02T22:17:38;6.70;98.50
20957;DHT22;10637;47.970;7.830;2023-02-02T22:22:50;6.70;98.30
20957;DHT22;10637;47.970;7.830;2023-02-02T22:27:55;6.70;98.10
20957;DHT22;10637;47.970;7.830;2023-02-02T22:33:00;6.70;98.10
20957;DHT22;10637;47.970;7.830;2023-02-02T22:38:02;6.70;98.00
20957;DHT22;10637;47.970;7.830;2023-02-02T22:43:06;6.70;98.00
20957;DHT22;10637;47.970;7.830;2023-02-02T22:48:08;6.70;97.80
20957;DHT22;10637;47.970;7.830;2023-02-02T22:53:10;6.60;97.70
20957;DHT22;10637;47.970;7.830;2023-02-02T22:58:14;6.70;97.80
20957;DHT22;10637;47.970;7.830;2023-02-02T23:03:16;6.60;97.80
20957;DHT22;10637;47.970;7.830;2023-02-02T23:08:17;6.70;97.70
20957;DHT22;10637;47.970;7.830;2023-02-02T23:13:19;6.70;97.70
20957;DHT22;10637;47.970;7.830;2023-02-02T23:18:21;6.60;97.20
20957;DHT22;10637;47.970;7.830;2023-02-02T23:23:23;6.70;97.80
20957;DHT22;10637;47.970;7.830;2023-02-02T23:28:25;6.70;97.50
20957;DHT22;10637;47.970;7.830;2023-02-02T23:33:26;6.60;97.40
20957;DHT22;10637;47.970;7.830;2023-02-02T23:38:28;6.60;97.40
20957;DHT22;10637;47.970;7.830;2023-02-02T23:43:30;6.60;97.20
20957;DHT22;10637;47.970;7.830;2023-02-02T23:48:32;6.60;97.30
20957;DHT22;10637;47.970;7.830;2023-02-02T23:53:35;6.60;97.10
20957;DHT22;10637;47.970;7.830;2023-02-02T23:58:36;6.60;97.10
